createdAt,value
2023-02-27T00:00:49.253Z,100019.02
2023-02-27T00:04:16.962Z,100027.98
2023-02-27T00:07:25.373Z,100035.46
2023-02-27T00:10:53.500Z,100041.39
2023-02-27T00:14:21.140Z,100050.48
2023-02-27T00:17:29.570Z,100054.45
2023-02-27T00:20:57.671Z,100062.55
2023-02-27T00:24:25.516Z,100066.53
2023-02-27T00:27:53.258Z,100068.63
2023-02-27T00:31:20.997Z,100070.36
2023-02-27T00:34:09.325Z,100075.42
2023-02-27T00:37:36.984Z,100078.25
2023-02-27T00:40:25.765Z,100079.05
2023-02-27T00:43:53.609Z,100084.39
2023-02-27T00:47:21.420Z,100091.54
2023-02-27T00:50:49.565Z,100091.16
2023-02-27T00:54:17.398Z,100094.05
2023-02-27T00:57:45.148Z,100095.08
2023-02-27T01:00:34.202Z,100100.02
2023-02-27T01:04:01.913Z,100103.79
2023-02-27T01:07:29.604Z,100106.41
2023-02-27T01:10:57.410Z,100111.90
2023-02-27T01:14:25.265Z,100116.46
2023-02-27T01:17:53.176Z,100115.14
2023-02-27T01:21:20.979Z,100118.24
2023-02-27T01:24:48.720Z,100120.23
2023-02-27T01:28:16.386Z,100127.76
2023-02-27T01:31:27.127Z,100124.69
2023-02-27T01:34:35.305Z,100134.27
2023-02-27T01:38:03.147Z,100137.91
2023-02-27T01:41:27.268Z,100142.58
2023-02-27T01:44:54.645Z,100148.30
2023-02-27T01:48:22.608Z,100157.06
2023-02-27T01:51:51.271Z,100162.84
2023-02-27T01:55:19.083Z,100164.63
2023-02-27T01:58:46.985Z,100167.44
2023-02-27T02:01:55.217Z,100176.58
2023-02-27T02:05:23.049Z,100178.64
2023-02-27T02:08:50.952Z,100182.17
2023-02-27T02:12:18.809Z,100185.98
2023-02-27T02:15:27.116Z,100191.66
2023-02-27T02:18:55.004Z,100199.00
2023-02-27T02:22:02.803Z,100203.36
2023-02-27T02:25:30.564Z,100208.95
2023-02-27T02:28:58.480Z,100217.48
2023-02-27T02:32:26.375Z,100229.92
2023-02-27T02:35:54.300Z,100228.22
2023-02-27T02:39:03.188Z,100228.58
2023-02-27T02:42:31.594Z,100224.03
2023-02-27T02:45:59.778Z,100232.14
2023-02-27T02:49:08.517Z,100233.09
2023-02-27T02:52:36.267Z,100234.94
2023-02-27T02:56:04.021Z,100241.94
2023-02-27T02:59:31.948Z,100254.10
2023-02-27T03:02:59.847Z,100261.09
2023-02-27T03:06:08.778Z,100270.09
2023-02-27T03:09:36.596Z,100284.17
2023-02-27T03:13:04.331Z,100287.30
2023-02-27T03:16:32.180Z,100302.04
2023-02-27T03:19:59.965Z,100306.52
2023-02-27T03:23:27.716Z,100309.63
2023-02-27T03:26:55.529Z,100316.26
2023-02-27T03:30:23.360Z,100317.63
2023-02-27T03:33:51.370Z,100314.54
2023-02-27T03:37:19.408Z,100318.70
2023-02-27T03:40:47.262Z,100312.59
2023-02-27T03:44:15.191Z,100305.62
2023-02-27T03:47:43.014Z,100305.25
2023-02-27T03:50:51.446Z,100304.52
2023-02-27T03:54:00.410Z,100313.67
2023-02-27T03:57:28.348Z,100323.93
2023-02-27T04:00:37.460Z,100334.10
2023-02-27T04:04:05.181Z,100343.50
2023-02-27T04:07:31.555Z,100354.14
2023-02-27T04:10:40.709Z,100362.41
2023-02-27T04:14:08.675Z,100366.35
2023-02-27T04:17:36.788Z,100368.06
2023-02-27T04:21:04.772Z,100375.64
2023-02-27T04:24:32.717Z,100383.70
2023-02-27T04:28:00.710Z,100394.94
2023-02-27T04:31:29.201Z,100400.49
2023-02-27T04:34:56.910Z,100409.35
2023-02-27T04:38:24.857Z,100415.25
2023-02-27T04:41:52.796Z,100432.45
2023-02-27T04:44:42.018Z,100436.32
2023-02-27T04:48:09.871Z,100445.12
2023-02-27T04:51:37.660Z,100449.16
2023-02-27T04:55:05.417Z,100453.47
2023-02-27T04:58:33.595Z,100465.88
2023-02-27T05:02:01.499Z,100473.59
2023-02-27T05:05:29.486Z,100473.20
2023-02-27T05:08:37.790Z,100475.52
2023-02-27T05:12:05.758Z,100486.73
2023-02-27T05:15:14.379Z,100487.41
2023-02-27T05:18:42.314Z,100493.31
2023-02-27T05:22:10.036Z,100502.91
2023-02-27T05:24:59.023Z,100506.65
2023-02-27T05:28:26.980Z,100521.10
2023-02-27T05:31:54.931Z,100523.16
2023-02-27T05:35:22.715Z,100524.48
2023-02-27T05:38:50.533Z,100524.83
2023-02-27T05:42:18.498Z,100533.05
2023-02-27T05:45:46.531Z,100542.02
2023-02-27T05:49:14.510Z,100558.47
2023-02-27T05:52:42.360Z,100568.63
2023-02-27T05:55:51.218Z,100575.05
2023-02-27T05:59:00.316Z,100579.43
2023-02-27T06:02:28.396Z,100586.52
2023-02-27T06:05:56.252Z,100597.20
2023-02-27T06:09:24.046Z,100611.21
2023-02-27T06:12:51.700Z,100619.84
2023-02-27T06:16:19.627Z,100629.60
2023-02-27T06:19:47.533Z,100636.30
2023-02-27T06:23:15.605Z,100648.31
2023-02-27T06:26:43.565Z,100664.48
2023-02-27T06:29:52.394Z,100678.75
2023-02-27T06:33:20.203Z,100688.49
2023-02-27T06:36:48.008Z,100696.11
2023-02-27T06:40:16.031Z,100701.34
2023-02-27T06:43:43.831Z,100712.38
2023-02-27T06:47:11.988Z,100716.34
2023-02-27T06:50:21.116Z,100721.80
2023-02-27T06:53:10.536Z,100724.88
2023-02-27T06:56:39.507Z,100727.92
2023-02-27T06:59:12.189Z,100729.89
2023-02-27T07:02:39.949Z,100720.39
2023-02-27T07:05:49.718Z,100727.10
2023-02-27T07:09:02.834Z,100724.73
2023-02-27T07:12:27.816Z,100721.53
2023-02-27T07:15:37.659Z,100714.71
2023-02-27T07:18:07.977Z,100713.91
2023-02-27T07:21:15.873Z,100709.98
2023-02-27T07:24:29.519Z,100701.22
2023-02-27T07:27:02.878Z,100693.33
2023-02-27T07:30:15.518Z,100696.09
2023-02-27T07:33:03.249Z,100704.70
2023-02-27T07:35:51.864Z,100705.20
2023-02-27T07:38:39.904Z,100706.21
2023-02-27T07:41:12.105Z,100709.17
2023-02-27T07:44:17.434Z,100709.17
2023-02-27T07:47:05.115Z,100713.94
2023-02-27T07:49:54.947Z,100724.70
2023-02-27T07:52:24.182Z,100727.75
2023-02-27T07:55:53.113Z,100730.41
2023-02-27T07:59:20.929Z,100736.70
2023-02-27T08:02:48.989Z,100742.61
2023-02-27T08:06:01.195Z,100751.31
2023-02-27T08:09:26.799Z,100770.45
2023-02-27T08:12:35.240Z,100787.08
2023-02-27T08:16:03.298Z,100807.21
2023-02-27T08:18:53.755Z,100816.23
2023-02-27T08:22:21.446Z,100819.33
2023-02-27T08:25:07.472Z,100816.77
2023-02-27T08:28:23.476Z,100827.05
2023-02-27T08:30:51.377Z,100832.02
2023-02-27T08:33:41.442Z,100839.80
2023-02-27T08:36:31.311Z,100846.05
2023-02-27T08:39:59.419Z,100857.81
2023-02-27T08:43:27.385Z,100863.65
2023-02-27T08:46:37.088Z,100868.95
2023-02-27T08:50:05.264Z,100871.83
2023-02-27T08:53:33.196Z,100884.71
2023-02-27T08:56:41.206Z,100884.78
2023-02-27T09:00:09.321Z,100885.47
2023-02-27T09:03:37.457Z,100888.56
2023-02-27T09:07:05.682Z,100890.34
2023-02-27T09:10:33.430Z,100890.45
2023-02-27T09:14:01.508Z,100892.03
2023-02-27T09:16:51.489Z,100897.05
2023-02-27T09:20:19.292Z,100908.45
2023-02-27T09:23:47.399Z,100912.69
2023-02-27T09:27:15.340Z,100919.23
2023-02-27T09:30:43.407Z,100922.14
2023-02-27T09:34:11.328Z,100927.96
2023-02-27T09:37:39.516Z,100930.84
2023-02-27T09:40:28.235Z,100933.55
2023-02-27T09:43:17.311Z,100938.98
2023-02-27T09:46:45.208Z,100947.49
2023-02-27T09:49:54.153Z,100952.39
2023-02-27T09:53:22.315Z,100955.84
2023-02-27T09:56:10.603Z,100960.44
2023-02-27T09:58:40.456Z,100958.88
2023-02-27T10:02:08.596Z,100968.77
2023-02-27T10:04:58.212Z,100966.59
2023-02-27T10:08:26.278Z,100964.33
2023-02-27T10:11:34.554Z,100965.65
2023-02-27T10:15:02.393Z,100968.16
2023-02-27T10:18:25.463Z,100962.38
2023-02-27T10:21:38.774Z,100973.32
2023-02-27T10:24:08.735Z,100974.93
2023-02-27T10:27:36.721Z,100971.75
2023-02-27T10:31:04.730Z,100966.88
2023-02-27T10:34:32.616Z,100963.13
2023-02-27T10:37:01.558Z,100960.02
2023-02-27T10:40:29.517Z,100965.55
2023-02-27T10:42:59.905Z,100969.11
2023-02-27T10:46:07.848Z,100984.05
2023-02-27T10:48:43.869Z,100989.98
2023-02-27T10:51:32.935Z,100989.94
2023-02-27T10:54:40.988Z,100991.02
2023-02-27T10:58:08.880Z,100990.29
2023-02-27T11:00:42.761Z,100993.71
2023-02-27T11:04:10.768Z,100997.55
2023-02-27T11:07:38.935Z,100997.55
2023-02-27T11:10:47.811Z,101004.26
2023-02-27T11:13:19.158Z,101014.59
2023-02-27T11:16:27.856Z,101020.91
2023-02-27T11:19:16.482Z,101019.26
2023-02-27T11:22:44.521Z,101020.78
2023-02-27T11:26:12.473Z,101025.27
2023-02-27T11:29:21.312Z,101021.05
2023-02-27T11:32:10.386Z,101022.65
2023-02-27T11:34:59.450Z,101026.89
2023-02-27T11:38:08.618Z,101026.09
2023-02-27T11:40:57.211Z,101027.30
2023-02-27T11:44:31.621Z,101023.85
2023-02-27T11:47:34.933Z,101019.45
2023-02-27T11:50:44.827Z,101018.69
2023-02-27T11:54:12.804Z,101014.62
2023-02-27T11:57:40.751Z,101013.06
2023-02-27T12:00:48.826Z,101014.79
2023-02-27T12:04:17.558Z,101014.25
2023-02-27T12:07:25.974Z,101011.79
2023-02-27T12:10:57.292Z,101018.08
2023-02-27T12:14:22.445Z,101023.80
2023-02-27T12:17:50.536Z,101028.33
2023-02-27T12:21:18.501Z,101029.78
2023-02-27T12:24:26.776Z,101029.88
2023-02-27T12:27:54.831Z,101033.11
2023-02-27T12:31:23.018Z,101033.82
2023-02-27T12:34:50.952Z,101044.63
2023-02-27T12:37:59.050Z,101043.15
2023-02-27T12:41:07.682Z,101045.79
2023-02-27T12:43:55.901Z,101056.05
2023-02-27T12:47:04.332Z,101058.11
2023-02-27T12:50:32.376Z,101055.13
2023-02-27T12:54:00.460Z,101059.23
2023-02-27T12:57:28.414Z,101068.11
2023-02-27T12:59:56.723Z,101076.63
2023-02-27T13:02:25.286Z,101086.67
2023-02-27T13:04:53.500Z,101086.28
2023-02-27T13:07:22.105Z,101091.96
2023-02-27T13:09:50.177Z,101096.41
2023-02-27T13:12:39.326Z,101101.00
2023-02-27T13:15:07.344Z,101103.13
2023-02-27T13:17:36.712Z,101106.16
2023-02-27T13:20:24.720Z,101112.73
2023-02-27T13:23:12.569Z,101116.30
2023-02-27T13:25:43.552Z,101115.46
2023-02-27T13:28:32.556Z,101117.80
2023-02-27T13:31:01.430Z,101118.20
2023-02-27T13:34:16.883Z,101114.67
2023-02-27T13:37:44.697Z,101117.12
2023-02-27T13:40:12.701Z,101116.55
2023-02-27T13:43:02.402Z,101112.09
2023-02-27T13:45:51.398Z,101118.10
2023-02-27T13:48:41.345Z,101123.04
2023-02-27T13:51:51.389Z,101125.62
2023-02-27T13:55:20.460Z,101124.95
2023-02-27T13:58:48.654Z,101122.36
2023-02-27T14:02:16.705Z,101124.42
2023-02-27T14:05:44.626Z,101131.61
2023-02-27T14:09:15.425Z,101124.42
2023-02-27T14:12:46.163Z,101111.13
2023-02-27T14:16:11.296Z,101112.14
2023-02-27T14:19:20.357Z,101109.30
2023-02-27T14:21:48.330Z,101108.61
2023-02-27T14:24:37.780Z,101103.98
2023-02-27T14:27:46.221Z,101098.05
2023-02-27T14:31:14.245Z,101097.91
2023-02-27T14:33:42.124Z,101092.85
2023-02-27T14:36:29.974Z,101079.66
2023-02-27T14:38:58.031Z,101079.32
2023-02-27T14:41:45.945Z,101096.64
2023-02-27T14:44:14.096Z,101094.86
2023-02-27T14:46:42.052Z,101093.79
2023-02-27T14:49:10.060Z,101091.77
2023-02-27T14:51:38.380Z,101094.36
2023-02-27T14:54:06.334Z,101096.95
2023-02-27T14:56:34.298Z,101100.07
2023-02-27T14:59:04.524Z,101104.84
2023-02-27T15:01:35.876Z,101105.35
2023-02-27T15:04:03.885Z,101107.17
2023-02-27T15:06:32.274Z,101108.70
2023-02-27T15:09:00.211Z,101117.10
2023-02-27T15:11:29.397Z,101118.92
2023-02-27T15:14:37.538Z,101118.11
2023-02-27T15:17:05.449Z,101123.23
2023-02-27T15:19:34.065Z,101130.42
2023-02-27T15:22:38.051Z,101125.58
2023-02-27T15:25:07.305Z,101132.05
2023-02-27T15:27:35.572Z,101141.98
2023-02-27T15:30:03.624Z,101150.63
2023-02-27T15:32:31.724Z,101146.41
2023-02-27T15:35:00.888Z,101148.87
2023-02-27T15:38:28.959Z,101159.73
2023-02-27T15:41:01.345Z,101158.89
2023-02-27T15:44:29.818Z,101152.88
2023-02-27T15:47:17.831Z,101150.27
2023-02-27T15:50:45.814Z,101143.08
2023-02-27T15:54:14.333Z,101143.01
2023-02-27T15:56:44.525Z,101145.04
2023-02-27T15:59:53.799Z,101149.35
2023-02-27T16:03:01.830Z,101152.52
2023-02-27T16:05:54.420Z,101146.77
2023-02-27T16:09:22.295Z,101152.19
2023-02-27T16:12:50.384Z,101162.42
2023-02-27T16:16:18.208Z,101177.14
2023-02-27T16:19:27.241Z,101183.36
2023-02-27T16:22:55.153Z,101184.46
2023-02-27T16:26:23.566Z,101187.70
2023-02-27T16:28:51.760Z,101187.55
2023-02-27T16:31:21.041Z,101185.58
2023-02-27T16:33:50.974Z,101179.52
2023-02-27T16:36:19.080Z,101174.25
2023-02-27T16:39:06.937Z,101172.85
2023-02-27T16:41:35.226Z,101168.20
2023-02-27T16:44:02.979Z,101168.04
2023-02-27T16:46:30.994Z,101171.71
2023-02-27T16:49:14.192Z,101176.56
2023-02-27T16:52:29.629Z,101185.81
2023-02-27T16:55:37.631Z,101192.33
2023-02-27T16:58:48.003Z,101197.45
2023-02-27T17:01:16.388Z,101200.98
2023-02-27T17:04:13.457Z,101205.41
2023-02-27T17:07:12.825Z,101208.30
2023-02-27T17:10:03.838Z,101208.01
2023-02-27T17:13:32.261Z,101206.79
2023-02-27T17:17:00.469Z,101202.05
2023-02-27T17:20:28.416Z,101199.86
2023-02-27T17:22:57.910Z,101200.94
2023-02-27T17:25:48.524Z,101208.86
2023-02-27T17:28:57.645Z,101212.82
2023-02-27T17:32:25.570Z,101219.00
2023-02-27T17:35:53.641Z,101223.57
2023-02-27T17:39:02.433Z,101224.48
2023-02-27T17:41:51.064Z,101216.69
2023-02-27T17:44:59.599Z,101206.71
2023-02-27T17:48:27.638Z,101213.71
2023-02-27T17:51:37.676Z,101218.73
2023-02-27T17:54:45.897Z,101230.29
2023-02-27T17:58:14.003Z,101228.83
2023-02-27T18:01:02.955Z,101214.94
2023-02-27T18:03:32.351Z,101211.62
2023-02-27T18:06:41.043Z,101224.47
2023-02-27T18:10:09.309Z,101236.09
2023-02-27T18:13:37.337Z,101242.71
2023-02-27T18:16:05.321Z,101248.23
2023-02-27T18:18:35.628Z,101247.07
2023-02-27T18:21:04.572Z,101244.25
2023-02-27T18:23:53.002Z,101243.13
2023-02-27T18:27:09.006Z,101241.97
2023-02-27T18:29:58.084Z,101245.11
2023-02-27T18:32:46.106Z,101249.59
2023-02-27T18:35:34.844Z,101247.33
2023-02-27T18:38:23.014Z,101250.59
2023-02-27T18:41:38.895Z,101258.77
2023-02-27T18:44:48.817Z,101258.14
2023-02-27T18:48:17.070Z,101264.07
2023-02-27T18:51:25.942Z,101269.34
2023-02-27T18:54:53.972Z,101273.43
2023-02-27T18:57:26.729Z,101270.17
2023-02-27T19:00:15.461Z,101271.98
2023-02-27T19:02:44.426Z,101278.15
2023-02-27T19:05:12.399Z,101280.38
2023-02-27T19:07:40.373Z,101281.39
2023-02-27T19:10:10.914Z,101283.58
2023-02-27T19:12:56.102Z,101294.81
2023-02-27T19:15:43.950Z,101291.30
2023-02-27T19:18:12.581Z,101293.87
2023-02-27T19:21:26.691Z,101290.05
2023-02-27T19:24:54.483Z,101292.55
2023-02-27T19:28:22.521Z,101278.39
2023-02-27T19:31:50.490Z,101256.20
2023-02-27T19:34:59.356Z,101260.33
2023-02-27T19:38:27.592Z,101272.28
2023-02-27T19:41:52.863Z,101260.17
2023-02-27T19:45:01.948Z,101250.20
2023-02-27T19:48:31.004Z,101250.14
2023-02-27T19:51:58.960Z,101248.54
2023-02-27T19:55:26.769Z,101259.46
2023-02-27T19:58:54.869Z,101269.80
2023-02-27T20:02:22.709Z,101266.23
2023-02-27T20:05:11.848Z,101275.23
2023-02-27T20:08:39.722Z,101291.10
2023-02-27T20:11:47.581Z,101299.45
2023-02-27T20:15:15.331Z,101299.25
2023-02-27T20:18:43.229Z,101303.84
2023-02-27T20:22:11.257Z,101300.52
2023-02-27T20:25:38.985Z,101307.44
2023-02-27T20:29:06.979Z,101304.90
2023-02-27T20:32:35.080Z,101315.41
2023-02-27T20:36:03.005Z,101300.67
2023-02-27T20:39:30.709Z,101291.34
2023-02-27T20:42:58.473Z,101292.95
2023-02-27T20:46:26.296Z,101284.73
2023-02-27T20:49:54.264Z,101277.91
2023-02-27T20:53:22.394Z,101278.13
2023-02-27T20:56:50.337Z,101280.45
2023-02-27T21:00:18.365Z,101287.02
2023-02-27T21:03:46.544Z,101294.38
2023-02-27T21:07:10.605Z,101291.41
2023-02-27T21:10:38.479Z,101289.19
2023-02-27T21:13:27.308Z,101291.27
2023-02-27T21:16:55.339Z,101295.98
2023-02-27T21:20:11.560Z,101295.31
2023-02-27T21:23:39.674Z,101292.55
2023-02-27T21:26:28.084Z,101298.14
2023-02-27T21:29:55.902Z,101311.02
2023-02-27T21:33:23.928Z,101313.40
2023-02-27T21:36:51.671Z,101327.70
2023-02-27T21:40:19.693Z,101349.73
2023-02-27T21:43:47.801Z,101354.86
2023-02-27T21:47:15.656Z,101339.70
2023-02-27T21:50:43.375Z,101327.27
2023-02-27T21:54:11.268Z,101328.63
2023-02-27T21:57:38.943Z,101321.73
2023-02-27T22:00:48.779Z,101333.90
2023-02-27T22:04:16.803Z,101342.49
2023-02-27T22:07:44.721Z,101353.07
2023-02-27T22:11:12.705Z,101359.85
2023-02-27T22:14:40.667Z,101358.04
2023-02-27T22:17:49.175Z,101354.88
2023-02-27T22:21:17.109Z,101368.41
2023-02-27T22:24:13.270Z,101376.66
2023-02-27T22:27:36.979Z,101375.69
2023-02-27T22:31:04.934Z,101385.83
2023-02-27T22:33:33.383Z,101381.84
2023-02-27T22:36:49.588Z,101384.34
2023-02-27T22:39:21.683Z,101391.39
2023-02-27T22:42:54.624Z,101388.13
2023-02-27T22:45:52.444Z,101395.07
2023-02-27T22:49:20.527Z,101392.08
2023-02-27T22:51:57.517Z,101391.52
2023-02-27T22:55:08.482Z,101380.38
2023-02-27T22:57:51.505Z,101386.73
2023-02-27T23:00:43.187Z,101385.46
2023-02-27T23:04:03.867Z,101388.45
2023-02-27T23:07:13.630Z,101386.70
2023-02-27T23:10:03.113Z,101379.69
2023-02-27T23:13:31.157Z,101370.52
2023-02-27T23:16:20.054Z,101361.92
2023-02-27T23:19:28.159Z,101354.83
2023-02-27T23:22:57.262Z,101361.19
2023-02-27T23:25:45.250Z,101363.88
2023-02-27T23:28:34.313Z,101374.98
2023-02-27T23:31:43.329Z,101376.55
2023-02-27T23:35:11.272Z,101375.38
2023-02-27T23:38:39.272Z,101372.83
2023-02-27T23:41:47.942Z,101372.20
2023-02-27T23:44:36.907Z,101371.89
2023-02-27T23:47:26.098Z,101379.19
2023-02-27T23:50:36.121Z,101381.19
2023-02-27T23:54:04.150Z,101384.32
2023-02-27T23:57:32.270Z,101393.13
